Time;durP1;ratioP1;P1;durP2;ratioP2;P2;SDS_P1;SDS_P2;PMS_P1;PMS_P2;Temp;Humidity;BMP_temperature;BMP_pressure;BME280_temperature;BME280_humidity;BME280_pressure;Samples;Min_cycle;Max_cycle;Signal;HPM_P1;HPM_P2
2024/01/28 00:01:25;;;;;;;5.80;2.00;;;;;;;;;;43415;270;3031442;-31
2024/01/28 00:03:20;;;;;;;4.40;1.50;;;;;;;;;;43388;290;3031464;-31
2024/01/28 00:05:06;;;;;;;5.20;1.70;;;;;;;;;;43417;290;3031260;-30
2024/01/28 00:06:51;;;;;;;5.50;1.80;;;;;;;;;;43654;274;3030929;-30
2024/01/28 00:08:37;;;;;;;5.40;1.80;;;;;;;;;;43413;270;3031906;-30
2024/01/28 00:10:22;;;;;;;6.00;2.00;;;;;;;;;;43419;282;3031926;-30
2024/01/28 00:12:08;;;;;;;4.80;1.80;;;;;;;;;;43394;274;3032051;-30
2024/01/28 00:13:52;;;;;;;5.60;2.10;;;;;;;;;;43464;274;3032298;-30
2024/01/28 00:15:39;;;;;;;5.70;1.90;;;;;;;;;;43402;282;3031603;-30
2024/01/28 00:17:24;;;;;;;4.90;1.80;;;;;;;;;;43318;275;3032864;-30
2024/01/28 00:19:10;;;;;;;5.10;1.90;;;;;;;;;;43375;282;3031434;-30
2024/01/28 00:20:59;;;;;;;5.70;2.20;;;;;;;;;;43380;283;3031681;-30
2024/01/28 00:22:48;;;;;;;4.70;1.70;;;;;;;;;;43372;282;3031216;-30
2024/01/28 00:24:38;;;;;;;5.10;1.90;;;;;;;;;;43394;282;3031811;-30
2024/01/28 00:26:29;;;;;;;5.30;1.90;;;;;;;;;;43411;274;3032044;-30
2024/01/28 00:28:19;;;;;;;5.20;1.70;;;;;;;;;;43422;274;3031785;-30
2024/01/28 00:30:08;;;;;;;5.80;2.00;;;;;;;;;;43362;287;3032142;-31
2024/01/28 00:32:00;;;;;;;5.70;1.90;;;;;;;;;;43381;282;3032117;-31
2024/01/28 00:33:52;;;;;;;5.30;2.00;;;;;;;;;;43338;290;3032030;-31
2024/01/28 00:35:41;;;;;;;5.30;2.00;;;;;;;;;;43313;275;3032080;-30
2024/01/28 00:37:26;;;;;;;5.30;1.90;;;;;;;;;;43343;278;3031620;-31
2024/01/28 00:39:16;;;;;;;4.30;1.80;;;;;;;;;;43311;291;3031587;-31
2024/01/28 00:41:03;;;;;;;5.70;2.20;;;;;;;;;;43323;291;3032724;-31
2024/01/28 00:42:48;;;;;;;5.30;2.10;;;;;;;;;;43864;275;3031456;-31
2024/01/28 00:44:35;;;;;;;6.00;2.20;;;;;;;;;;43341;267;3032679;-31
2024/01/28 00:46:21;;;;;;;6.60;2.80;;;;;;;;;;43332;275;3031948;-31
2024/01/28 00:48:10;;;;;;;6.00;2.10;;;;;;;;;;43344;283;3031624;-31
2024/01/28 00:49:56;;;;;;;6.00;2.00;;;;;;;;;;43470;283;3030761;-30
2024/01/28 00:51:45;;;;;;;5.20;2.00;;;;;;;;;;43339;283;3031809;-31
2024/01/28 00:53:33;;;;;;;5.50;2.40;;;;;;;;;;43302;283;3031335;-30
2024/01/28 00:55:17;;;;;;;4.90;2.00;;;;;;;;;;43258;284;3032034;-30
2024/01/28 00:57:11;;;;;;;6.00;2.00;;;;;;;;;;43311;275;3031815;-30
2024/01/28 00:59:00;;;;;;;5.80;2.10;;;;;;;;;;43320;275;3031844;-30
2024/01/28 01:00:48;;;;;;;5.00;1.90;;;;;;;;;;43303;282;3031170;-30
2024/01/28 01:02:36;;;;;;;5.60;2.20;;;;;;;;;;43674;275;3031728;-30
2024/01/28 01:04:20;;;;;;;5.20;2.20;;;;;;;;;;43327;283;3031675;-30
2024/01/28 01:06:09;;;;;;;5.90;2.10;;;;;;;;;;43343;271;3033413;-31
2024/01/28 01:07:54;;;;;;;5.40;2.10;;;;;;;;;;43436;275;3032040;-30
2024/01/28 01:09:41;;;;;;;5.00;2.10;;;;;;;;;;43345;283;3030696;-30
2024/01/28 01:11:27;;;;;;;5.40;2.30;;;;;;;;;;43370;282;3031043;-30
2024/01/28 01:13:15;;;;;;;5.40;2.20;;;;;;;;;;43299;275;3033488;-30
2024/01/28 01:15:04;;;;;;;5.50;2.10;;;;;;;;;;43324;283;3031580;-30
2024/01/28 01:16:49;;;;;;;5.50;2.40;;;;;;;;;;43512;274;3031276;-30
2024/01/28 01:18:35;;;;;;;5.70;2.40;;;;;;;;;;43307;279;3031205;-30
2024/01/28 01:20:22;;;;;;;5.60;2.20;;;;;;;;;;43328;278;3031426;-30
2024/01/28 01:22:13;;;;;;;5.10;2.20;;;;;;;;;;43333;283;3031409;-30
2024/01/28 01:24:04;;;;;;;5.10;2.10;;;;;;;;;;43288;283;3031692;-30
2024/01/28 01:25:51;;;;;;;6.40;2.10;;;;;;;;;;43317;274;3031333;-30
2024/01/28 01:27:37;;;;;;;5.50;2.30;;;;;;;;;;43312;274;3031103;-30
2024/01/28 01:29:24;;;;;;;5.20;2.00;;;;;;;;;;43317;283;3031433;-30
2024/01/28 01:31:16;;;;;;;5.30;2.10;;;;;;;;;;43323;275;3031925;-30
2024/01/28 01:33:03;;;;;;;6.70;2.40;;;;;;;;;;43304;274;3031300;-30
2024/01/28 01:34:53;;;;;;;5.20;2.40;;;;;;;;;;43303;274;3038636;-30
2024/01/28 01:36:44;;;;;;;5.30;2.10;;;;;;;;;;43303;279;3031679;-30
2024/01/28 01:38:33;;;;;;;5.10;2.40;;;;;;;;;;43328;275;3031022;-30
2024/01/28 01:40:18;;;;;;;5.50;2.10;;;;;;;;;;43318;275;3031676;-30
2024/01/28 01:42:03;;;;;;;5.80;2.30;;;;;;;;;;43516;283;3031005;-30
2024/01/28 01:43:53;;;;;;;5.20;2.30;;;;;;;;;;43288;282;3031821;-30
2024/01/28 01:45:45;;;;;;;5.20;2.30;;;;;;;;;;43347;282;3031759;-30
2024/01/28 01:47:33;;;;;;;5.90;2.40;;;;;;;;;;43344;275;3031133;-31
2024/01/28 01:49:27;;;;;;;5.10;2.40;;;;;;;;;;43312;279;3032546;-32
2024/01/28 01:51:21;;;;;;;4.90;2.20;;;;;;;;;;43250;284;3032807;-31
2024/01/28 01:53:09;;;;;;;5.30;2.30;;;;;;;;;;43322;279;3031996;-30
2024/01/28 01:54:56;;;;;;;4.90;2.30;;;;;;;;;;43292;274;3031291;-31
2024/01/28 01:56:49;;;;;;;5.10;2.30;;;;;;;;;;43346;279;3031139;-31
2024/01/28 01:58:34;;;;;;;5.60;2.50;;;;;;;;;;43337;275;3031502;-31
2024/01/28 02:00:22;;;;;;;5.50;2.20;;;;;;;;;;43570;275;3031279;-29
2024/01/28 02:02:10;;;;;;;5.80;2.40;;;;;;;;;;43431;279;3033251;-30
2024/01/28 02:03:57;;;;;;;5.60;2.40;;;;;;;;;;43311;275;3031320;-30
2024/01/28 02:05:45;;;;;;;5.40;2.30;;;;;;;;;;43296;281;3038342;-30
2024/01/28 02:07:30;;;;;;;6.50;2.50;;;;;;;;;;43822;282;3031624;-30
2024/01/28 02:09:16;;;;;;;5.70;2.40;;;;;;;;;;43333;279;3031304;-30
2024/01/28 02:11:05;;;;;;;5.80;2.80;;;;;;;;;;43318;274;3031919;-30
2024/01/28 02:12:56;;;;;;;5.20;2.30;;;;;;;;;;43314;283;3032535;-30
2024/01/28 02:14:42;;;;;;;6.20;2.60;;;;;;;;;;43294;274;3031358;-30
2024/01/28 02:16:30;;;;;;;4.90;2.20;;;;;;;;;;43329;275;3031722;-30
2024/01/28 02:18:20;;;;;;;5.80;2.40;;;;;;;;;;43334;283;3031871;-30
2024/01/28 02:20:12;;;;;;;5.50;2.30;;;;;;;;;;43334;283;3032014;-30
2024/01/28 02:21:57;;;;;;;5.40;2.30;;;;;;;;;;43686;278;3031290;-30
2024/01/28 02:23:44;;;;;;;5.80;2.40;;;;;;;;;;43403;282;3031038;-30
2024/01/28 02:25:37;;;;;;;6.30;2.50;;;;;;;;;;43397;282;3032293;-30
2024/01/28 02:27:26;;;;;;;5.10;2.20;;;;;;;;;;43412;291;3031747;-30
2024/01/28 02:29:15;;;;;;;5.50;2.20;;;;;;;;;;43403;274;3031999;-30
2024/01/28 02:31:06;;;;;;;5.90;2.80;;;;;;;;;;43425;274;3031915;-30
2024/01/28 02:32:52;;;;;;;5.40;2.30;;;;;;;;;;44054;278;3031810;-30
2024/01/28 02:34:38;;;;;;;6.00;2.60;;;;;;;;;;43503;274;3031401;-30
2024/01/28 02:36:23;;;;;;;5.80;2.50;;;;;;;;;;43373;274;3038155;-30
2024/01/28 02:38:14;;;;;;;5.00;2.30;;;;;;;;;;43387;274;3032061;-30
2024/01/28 02:40:04;;;;;;;5.50;2.40;;;;;;;;;;43407;278;3031218;-30
2024/01/28 02:41:55;;;;;;;6.00;2.50;;;;;;;;;;43398;290;3031481;-30
2024/01/28 02:43:49;;;;;;;4.80;2.10;;;;;;;;;;43427;274;3031114;-30
2024/01/28 02:45:37;;;;;;;5.80;2.70;;;;;;;;;;43392;278;3032073;-30
2024/01/28 02:47:24;;;;;;;5.80;2.60;;;;;;;;;;43411;282;3030998;-31
2024/01/28 02:49:11;;;;;;;5.30;2.30;;;;;;;;;;43412;274;3031318;-31
2024/01/28 02:50:58;;;;;;;5.40;2.40;;;;;;;;;;43448;282;3031669;-31
2024/01/28 02:52:43;;;;;;;5.40;2.60;;;;;;;;;;43392;278;3032373;-31
2024/01/28 02:54:35;;;;;;;5.70;2.40;;;;;;;;;;43355;282;3030760;-31
2024/01/28 02:56:21;;;;;;;5.40;2.40;;;;;;;;;;43373;274;3031538;-31
2024/01/28 02:58:10;;;;;;;5.40;2.40;;;;;;;;;;43420;274;3031469;-31
2024/01/28 03:00:02;;;;;;;6.00;2.40;;;;;;;;;;43396;290;3032070;-31
2024/01/28 03:01:55;;;;;;;5.60;2.50;;;;;;;;;;43274;283;3032949;-31
2024/01/28 03:03:41;;;;;;;6.00;2.70;;;;;;;;;;43401;282;3031822;-31
2024/01/28 03:05:27;;;;;;;5.70;2.60;;;;;;;;;;43389;283;3032106;-31
2024/01/28 03:07:15;;;;;;;5.40;2.20;;;;;;;;;;43396;278;3037263;-31
2024/01/28 03:09:04;;;;;;;5.90;2.60;;;;;;;;;;43389;282;3030791;-31
2024/01/28 03:10:49;;;;;;;6.00;2.40;;;;;;;;;;43769;278;3031863;-31
2024/01/28 03:12:37;;;;;;;5.80;2.50;;;;;;;;;;43403;282;3032410;-31
2024/01/28 03:14:23;;;;;;;5.50;2.50;;;;;;;;;;43413;282;3031431;-31
2024/01/28 03:16:10;;;;;;;5.50;2.50;;;;;;;;;;43391;274;3031679;-31
2024/01/28 03:17:59;;;;;;;6.20;2.50;;;;;;;;;;43915;282;3031208;-31
2024/01/28 03:19:48;;;;;;;5.70;2.70;;;;;;;;;;43422;270;3031626;-31
2024/01/28 03:21:34;;;;;;;4.70;2.10;;;;;;;;;;43411;274;3031490;-31
2024/01/28 03:23:20;;;;;;;5.70;2.40;;;;;;;;;;43409;278;3031219;-31
2024/01/28 03:25:08;;;;;;;6.20;2.70;;;;;;;;;;43364;282;3031457;-31
2024/01/28 03:26:53;;;;;;;6.50;2.40;;;;;;;;;;43961;279;3031591;-31
2024/01/28 03:28:43;;;;;;;5.60;2.50;;;;;;;;;;43413;282;3031587;-31
2024/01/28 03:30:32;;;;;;;5.70;2.60;;;;;;;;;;43409;274;3031979;-31
2024/01/28 03:32:20;;;;;;;6.50;2.70;;;;;;;;;;43419;282;3031666;-31
2024/01/28 03:34:07;;;;;;;6.10;2.50;;;;;;;;;;43401;282;3031611;-31
2024/01/28 03:35:52;;;;;;;6.10;2.50;;;;;;;;;;43382;282;3031281;-31
2024/01/28 03:37:38;;;;;;;6.40;2.40;;;;;;;;;;43379;278;3031214;-31
2024/01/28 03:39:24;;;;;;;5.30;2.30;;;;;;;;;;43387;290;3032016;-31
2024/01/28 03:41:14;;;;;;;5.90;2.30;;;;;;;;;;43376;274;3031423;-31
2024/01/28 03:43:01;;;;;;;5.40;2.50;;;;;;;;;;43392;282;3031797;-31
2024/01/28 03:44:49;;;;;;;5.90;2.40;;;;;;;;;;43389;270;3031685;-31
2024/01/28 03:46:38;;;;;;;6.80;2.50;;;;;;;;;;43405;282;3031369;-31
2024/01/28 03:48:23;;;;;;;4.80;2.30;;;;;;;;;;43393;274;3031617;-31
2024/01/28 03:50:11;;;;;;;4.70;2.20;;;;;;;;;;43293;276;3033223;-31
2024/01/28 03:51:56;;;;;;;5.60;2.50;;;;;;;;;;43505;282;3031449;-31
2024/01/28 03:53:41;;;;;;;5.80;2.70;;;;;;;;;;43413;282;3031173;-31
2024/01/28 03:55:27;;;;;;;5.60;2.40;;;;;;;;;;43424;274;3031574;-31
2024/01/28 03:57:14;;;;;;;5.70;2.30;;;;;;;;;;43831;282;3031154;-31
2024/01/28 03:59:01;;;;;;;5.20;2.20;;;;;;;;;;43405;278;3031558;-31
2024/01/28 04:00:48;;;;;;;6.30;2.40;;;;;;;;;;43403;274;3031431;-31
2024/01/28 04:02:38;;;;;;;5.40;2.20;;;;;;;;;;43405;282;3031421;-31
2024/01/28 04:04:25;;;;;;;5.20;2.10;;;;;;;;;;43429;282;3032385;-31
2024/01/28 04:06:10;;;;;;;5.50;2.30;;;;;;;;;;43595;278;3032238;-36
2024/01/28 04:07:56;;;;;;;5.30;2.40;;;;;;;;;;43416;286;3031779;-31
2024/01/28 04:09:42;;;;;;;5.40;2.40;;;;;;;;;;43833;279;3031342;-31
2024/01/28 04:11:31;;;;;;;5.00;2.30;;;;;;;;;;43873;279;3031348;-31
2024/01/28 04:13:36;;;;;;;5.70;2.30;;;;;;;;;;43377;283;3031848;-31
2024/01/28 04:15:22;;;;;;;5.70;2.50;;;;;;;;;;43341;283;3032729;-31
2024/01/28 04:17:07;;;;;;;5.30;2.30;;;;;;;;;;43311;283;3031877;-31
2024/01/28 04:18:52;;;;;;;5.50;2.20;;;;;;;;;;43447;282;3037897;-31
2024/01/28 04:20:39;;;;;;;4.80;2.30;;;;;;;;;;43350;283;3033819;-31
2024/01/28 04:22:26;;;;;;;5.30;2.40;;;;;;;;;;43334;283;3032143;-31
2024/01/28 04:24:12;;;;;;;5.20;2.20;;;;;;;;;;43334;284;3031291;-31
2024/01/28 04:25:57;;;;;;;5.80;2.20;;;;;;;;;;43346;283;3031665;-31
2024/01/28 04:27:46;;;;;;;5.20;2.30;;;;;;;;;;43319;280;3032196;-31
2024/01/28 04:29:33;;;;;;;6.30;2.10;;;;;;;;;;43329;284;3031974;-31
2024/01/28 04:31:19;;;;;;;5.50;2.10;;;;;;;;;;43344;280;3031460;-31
2024/01/28 04:33:05;;;;;;;5.10;2.30;;;;;;;;;;43339;284;3031686;-31
2024/01/28 04:34:52;;;;;;;5.50;2.20;;;;;;;;;;43338;283;3032310;-31
2024/01/28 04:36:37;;;;;;;6.00;2.30;;;;;;;;;;43332;284;3032044;-31
2024/01/28 04:38:25;;;;;;;5.50;2.40;;;;;;;;;;43326;275;3031523;-31
2024/01/28 04:40:13;;;;;;;5.90;2.10;;;;;;;;;;43323;283;3032099;-31
2024/01/28 04:41:58;;;;;;;5.90;2.10;;;;;;;;;;43570;283;3031956;-31
2024/01/28 04:43:43;;;;;;;4.70;2.20;;;;;;;;;;43348;283;3030679;-31
2024/01/28 04:45:27;;;;;;;5.90;2.10;;;;;;;;;;43340;283;3032955;-31
2024/01/28 04:47:13;;;;;;;5.30;2.10;;;;;;;;;;43336;283;3032774;-31
2024/01/28 04:49:02;;;;;;;5.80;2.40;;;;;;;;;;43299;284;3031270;-31
2024/01/28 04:50:48;;;;;;;5.80;2.10;;;;;;;;;;43340;272;3032539;-31
2024/01/28 04:52:36;;;;;;;5.80;2.20;;;;;;;;;;43331;280;3031788;-31
2024/01/28 04:54:22;;;;;;;5.50;2.00;;;;;;;;;;43333;284;3032112;-31
2024/01/28 04:56:10;;;;;;;4.90;2.10;;;;;;;;;;43328;272;3032129;-31
2024/01/28 04:57:57;;;;;;;5.20;2.10;;;;;;;;;;43718;280;3032241;-31
2024/01/28 04:59:44;;;;;;;5.50;2.30;;;;;;;;;;43291;284;3038852;-31
2024/01/28 05:01:30;;;;;;;5.00;2.00;;;;;;;;;;43349;275;3031752;-31
2024/01/28 05:03:16;;;;;;;5.90;2.00;;;;;;;;;;43307;284;3031190;-31
2024/01/28 05:05:01;;;;;;;5.80;2.30;;;;;;;;;;43811;272;3032064;-31
2024/01/28 05:06:48;;;;;;;5.80;2.20;;;;;;;;;;43351;271;3033775;-31
2024/01/28 05:08:40;;;;;;;5.50;2.20;;;;;;;;;;43311;272;3032181;-31
2024/01/28 05:10:25;;;;;;;6.00;2.20;;;;;;;;;;43342;283;3039750;-31
2024/01/28 05:12:10;;;;;;;4.50;1.80;;;;;;;;;;43354;280;3030792;-31
2024/01/28 05:13:55;;;;;;;4.50;1.90;;;;;;;;;;43400;284;3032805;-31
2024/01/28 05:15:41;;;;;;;5.50;2.20;;;;;;;;;;43322;284;3031196;-31
2024/01/28 05:17:26;;;;;;;4.70;2.00;;;;;;;;;;43338;284;3031691;-31
2024/01/28 05:19:12;;;;;;;5.50;2.10;;;;;;;;;;43315;280;3031708;-31
2024/01/28 05:20:56;;;;;;;6.10;2.20;;;;;;;;;;43325;284;3032016;-31
2024/01/28 05:22:45;;;;;;;5.50;2.10;;;;;;;;;;43341;274;3031781;-31
2024/01/28 05:24:31;;;;;;;4.90;2.00;;;;;;;;;;43344;274;3033455;-31
2024/01/28 05:26:17;;;;;;;4.60;1.80;;;;;;;;;;43345;282;3031825;-31
2024/01/28 05:28:03;;;;;;;4.90;2.00;;;;;;;;;;43343;283;3031604;-31
2024/01/28 05:29:47;;;;;;;4.80;2.10;;;;;;;;;;43318;275;3030860;-31
2024/01/28 05:31:32;;;;;;;5.30;2.20;;;;;;;;;;43359;274;3033073;-31
2024/01/28 05:33:17;;;;;;;5.00;2.30;;;;;;;;;;43413;278;3031811;-31
2024/01/28 05:35:03;;;;;;;4.40;1.80;;;;;;;;;;43391;282;3031413;-31
2024/01/28 05:36:51;;;;;;;5.50;2.00;;;;;;;;;;43408;291;3031291;-31
2024/01/28 05:38:36;;;;;;;4.40;2.00;;;;;;;;;;43769;282;3032058;-31
2024/01/28 05:40:22;;;;;;;4.80;2.00;;;;;;;;;;43387;274;3030865;-31
2024/01/28 05:42:07;;;;;;;5.10;2.00;;;;;;;;;;43466;282;3031532;-31
2024/01/28 05:43:52;;;;;;;5.10;2.00;;;;;;;;;;44086;270;3031042;-31
2024/01/28 05:45:36;;;;;;;5.30;2.00;;;;;;;;;;43883;270;3031285;-31
2024/01/28 05:47:23;;;;;;;6.00;2.10;;;;;;;;;;43659;280;3032595;-31
2024/01/28 05:49:10;;;;;;;5.80;2.10;;;;;;;;;;44082;278;3031120;-31
2024/01/28 05:50:55;;;;;;;4.50;1.80;;;;;;;;;;43425;279;3031506;-31
2024/01/28 05:52:40;;;;;;;5.30;1.90;;;;;;;;;;43401;282;3030693;-31
2024/01/28 05:54:26;;;;;;;5.30;2.00;;;;;;;;;;43416;274;3031828;-30
2024/01/28 05:56:13;;;;;;;4.70;2.00;;;;;;;;;;43410;270;3030442;-30
2024/01/28 05:57:58;;;;;;;4.60;1.80;;;;;;;;;;43412;282;3030879;-30
2024/01/28 05:59:49;;;;;;;4.60;1.80;;;;;;;;;;43380;283;3030935;-30
2024/01/28 06:01:40;;;;;;;4.90;1.90;;;;;;;;;;43375;282;3037668;-30
2024/01/28 06:03:30;;;;;;;4.50;1.70;;;;;;;;;;43403;274;3030706;-30
2024/01/28 06:05:22;;;;;;;4.60;1.80;;;;;;;;;;43381;283;3031550;-30
2024/01/28 06:07:14;;;;;;;4.30;1.80;;;;;;;;;;43316;282;3031377;-30
2024/01/28 06:09:06;;;;;;;5.30;1.90;;;;;;;;;;43319;275;3031909;-30
2024/01/28 06:10:53;;;;;;;5.40;1.80;;;;;;;;;;43607;283;3030479;-30
2024/01/28 06:12:38;;;;;;;4.50;1.80;;;;;;;;;;43310;275;3030987;-30
2024/01/28 06:14:27;;;;;;;5.20;1.90;;;;;;;;;;43298;275;3030732;-30
2024/01/28 06:16:18;;;;;;;4.40;1.70;;;;;;;;;;43322;275;3030710;-30
2024/01/28 06:18:04;;;;;;;4.70;1.90;;;;;;;;;;43324;283;3031428;-30
2024/01/28 06:19:55;;;;;;;4.80;1.90;;;;;;;;;;43317;285;3031242;-30
2024/01/28 06:21:43;;;;;;;4.30;1.90;;;;;;;;;;43288;275;3030841;-30
2024/01/28 06:23:34;;;;;;;4.50;1.80;;;;;;;;;;43344;275;3030763;-30
2024/01/28 06:25:20;;;;;;;4.70;2.10;;;;;;;;;;43310;275;3030973;-30
2024/01/28 06:27:07;;;;;;;4.90;2.00;;;;;;;;;;43707;283;3030246;-30
2024/01/28 06:28:56;;;;;;;4.40;1.80;;;;;;;;;;43482;275;3030758;-30
2024/01/28 06:30:45;;;;;;;4.50;1.70;;;;;;;;;;43332;275;3031015;-30
2024/01/28 06:32:32;;;;;;;4.50;1.80;;;;;;;;;;43397;274;3038697;-30
2024/01/28 06:34:20;;;;;;;4.60;1.80;;;;;;;;;;43399;282;3032192;-30
2024/01/28 06:36:07;;;;;;;4.50;1.90;;;;;;;;;;43281;283;3030505;-30
2024/01/28 06:37:52;;;;;;;4.10;1.80;;;;;;;;;;43734;274;3031931;-30
2024/01/28 06:39:43;;;;;;;4.30;1.80;;;;;;;;;;43404;274;3030434;-30
2024/01/28 06:41:41;;;;;;;4.60;1.90;;;;;;;;;;43368;282;3031385;-30
2024/01/28 06:43:27;;;;;;;5.10;2.00;;;;;;;;;;43480;274;3030989;-30
2024/01/28 06:45:15;;;;;;;5.00;1.80;;;;;;;;;;43510;282;3030779;-30
2024/01/28 06:47:03;;;;;;;4.50;1.90;;;;;;;;;;43374;283;3029305;-31
2024/01/28 06:48:52;;;;;;;3.80;1.70;;;;;;;;;;43765;282;3030389;-31
2024/01/28 06:50:41;;;;;;;4.30;1.80;;;;;;;;;;43958;282;3031202;-31
2024/01/28 06:52:31;;;;;;;4.30;2.00;;;;;;;;;;43375;282;3031147;-31
2024/01/28 06:54:27;;;;;;;4.10;1.80;;;;;;;;;;43401;274;3030897;-31
2024/01/28 06:56:15;;;;;;;;;;;;;;;;;;43442;274;3031235;-31
2024/01/28 06:58:07;;;;;;;4.10;1.70;;;;;;;;;;43397;282;3029994;-31
2024/01/28 07:00:10;;;;;;;4.20;1.60;;;;;;;;;;43310;284;3031759;-31
2024/01/28 07:02:08;;;;;;;4.60;1.90;;;;;;;;;;43321;282;3030683;-31
2024/01/28 07:03:55;;;;;;;5.00;1.80;;;;;;;;;;43341;275;3030982;-31
2024/01/28 07:05:45;;;;;;;3.90;1.60;;;;;;;;;;43362;283;3031721;-31
2024/01/28 07:07:31;;;;;;;4.50;1.60;;;;;;;;;;43350;282;3030533;-31
2024/01/28 07:09:23;;;;;;;4.10;1.70;;;;;;;;;;43347;283;3030086;-31
2024/01/28 07:11:12;;;;;;;4.30;1.70;;;;;;;;;;43334;275;3030491;-31
2024/01/28 07:13:03;;;;;;;4.80;1.80;;;;;;;;;;43607;279;3031368;-31
2024/01/28 07:14:52;;;;;;;4.30;1.70;;;;;;;;;;43334;275;3030700;-31
2024/01/28 07:16:42;;;;;;;4.60;1.80;;;;;;;;;;43339;283;3030628;-31
2024/01/28 07:18:32;;;;;;;4.00;1.60;;;;;;;;;;43319;274;3032074;-30
2024/01/28 07:20:18;;;;;;;4.10;1.90;;;;;;;;;;43342;275;3030514;-30
2024/01/28 07:22:05;;;;;;;4.40;1.90;;;;;;;;;;43295;274;3030321;-30
2024/01/28 07:23:52;;;;;;;4.20;1.80;;;;;;;;;;43326;275;3036693;-30
2024/01/28 07:25:44;;;;;;;3.90;1.80;;;;;;;;;;43312;274;3031325;-30
2024/01/28 07:27:33;;;;;;;3.90;1.70;;;;;;;;;;43358;282;3031326;-30
2024/01/28 07:29:25;;;;;;;3.80;1.70;;;;;;;;;;43335;274;3030948;-30
2024/01/28 07:31:14;;;;;;;4.70;2.00;;;;;;;;;;43319;275;3031260;-30
2024/01/28 07:33:00;;;;;;;5.00;2.00;;;;;;;;;;43570;283;3030733;-30
2024/01/28 07:34:47;;;;;;;4.40;2.00;;;;;;;;;;43329;283;3030770;-30
2024/01/28 07:36:36;;;;;;;4.50;2.00;;;;;;;;;;43304;278;3031216;-30
2024/01/28 07:38:24;;;;;;;4.80;2.50;;;;;;;;;;43332;283;3031513;-29
2024/01/28 07:40:11;;;;;;;4.20;2.10;;;;;;;;;;43293;284;3030281;-29
2024/01/28 07:41:59;;;;;;;5.70;2.20;;;;;;;;;;43675;279;3031329;-29
2024/01/28 07:43:44;;;;;;;5.40;2.30;;;;;;;;;;43314;278;3031542;-29
2024/01/28 07:45:28;;;;;;;4.60;2.00;;;;;;;;;;43386;283;3030405;-29
2024/01/28 07:47:13;;;;;;;4.20;1.90;;;;;;;;;;43366;279;3030671;-29
2024/01/28 07:48:59;;;;;;;5.10;2.20;;;;;;;;;;43346;291;3030102;-29
2024/01/28 07:50:44;;;;;;;5.00;2.20;;;;;;;;;;43345;283;3032514;-29
2024/01/28 07:52:29;;;;;;;4.90;2.10;;;;;;;;;;43312;275;3030494;-29
2024/01/28 07:54:14;;;;;;;4.40;2.30;;;;;;;;;;43311;275;3031208;-29
2024/01/28 07:56:00;;;;;;;4.50;2.10;;;;;;;;;;43345;271;3031294;-29
2024/01/28 07:57:44;;;;;;;4.50;2.20;;;;;;;;;;43347;283;3031118;-29
2024/01/28 07:59:29;;;;;;;4.50;2.10;;;;;;;;;;43420;274;3030529;-29
2024/01/28 08:01:13;;;;;;;4.70;2.40;;;;;;;;;;43396;282;3030722;-29
2024/01/28 08:02:58;;;;;;;5.20;2.60;;;;;;;;;;43414;278;3030501;-29
2024/01/28 08:04:45;;;;;;;5.00;2.10;;;;;;;;;;43424;282;3037873;-29
2024/01/28 08:06:30;;;;;;;4.80;2.20;;;;;;;;;;43421;290;3030491;-30
2024/01/28 08:08:14;;;;;;;4.80;2.40;;;;;;;;;;43409;270;3030387;-30
2024/01/28 08:09:59;;;;;;;4.70;2.30;;;;;;;;;;43422;274;3030576;-30
2024/01/28 08:11:44;;;;;;;4.50;2.20;;;;;;;;;;43482;274;3031502;-30
2024/01/28 08:13:29;;;;;;;4.50;2.20;;;;;;;;;;43410;278;3031952;-30
2024/01/28 08:15:15;;;;;;;4.70;2.40;;;;;;;;;;43409;282;3030609;-29
2024/01/28 08:17:00;;;;;;;4.80;2.20;;;;;;;;;;44128;279;3031402;-29
2024/01/28 08:18:45;;;;;;;4.50;2.30;;;;;;;;;;43869;282;3030722;-30
2024/01/28 08:20:30;;;;;;;4.50;2.40;;;;;;;;;;43388;282;3031753;-29
2024/01/28 08:22:15;;;;;;;4.30;2.10;;;;;;;;;;43422;282;3031245;-29
2024/01/28 08:24:00;;;;;;;4.00;2.20;;;;;;;;;;43398;278;3031562;-29
2024/01/28 08:25:47;;;;;;;4.70;2.40;;;;;;;;;;43417;282;3030558;-29
2024/01/28 08:27:33;;;;;;;4.20;2.10;;;;;;;;;;43401;282;3031553;-29
2024/01/28 08:29:24;;;;;;;4.50;2.30;;;;;;;;;;43412;282;3031172;-29
2024/01/28 08:31:10;;;;;;;5.40;2.30;;;;;;;;;;43405;283;3031133;-29
2024/01/28 08:32:56;;;;;;;4.50;2.10;;;;;;;;;;43437;282;3032003;-29
2024/01/28 08:34:41;;;;;;;4.50;2.40;;;;;;;;;;43776;291;3030871;-29
2024/01/28 08:36:26;;;;;;;4.40;2.10;;;;;;;;;;43416;274;3031439;-29
2024/01/28 08:38:10;;;;;;;4.30;2.10;;;;;;;;;;43338;283;3030681;-29
2024/01/28 08:39:56;;;;;;;4.20;2.10;;;;;;;;;;43409;282;3030715;-29
2024/01/28 08:41:41;;;;;;;4.20;2.20;;;;;;;;;;43425;274;3030207;-29
2024/01/28 08:43:25;;;;;;;4.30;2.10;;;;;;;;;;43416;283;3030823;-29
2024/01/28 08:45:11;;;;;;;4.30;2.20;;;;;;;;;;43430;282;3030852;-29
2024/01/28 08:46:56;;;;;;;4.60;2.20;;;;;;;;;;43407;274;3032389;-29
2024/01/28 08:48:43;;;;;;;4.30;2.20;;;;;;;;;;43385;274;3030082;-29
2024/01/28 08:50:30;;;;;;;5.30;2.30;;;;;;;;;;43406;282;3031512;-29
2024/01/28 08:52:17;;;;;;;4.60;2.30;;;;;;;;;;43398;282;3030667;-29
2024/01/28 08:54:03;;;;;;;4.60;2.00;;;;;;;;;;43414;282;3029690;-29
2024/01/28 08:55:51;;;;;;;4.20;2.00;;;;;;;;;;43369;278;3038439;-29
2024/01/28 08:57:35;;;;;;;4.20;2.00;;;;;;;;;;43461;270;3031220;-29
2024/01/28 08:59:21;;;;;;;4.60;2.20;;;;;;;;;;43414;282;3030906;-29
2024/01/28 09:01:13;;;;;;;3.90;2.00;;;;;;;;;;43434;282;3030690;-29
2024/01/28 09:03:04;;;;;;;5.10;2.30;;;;;;;;;;43885;282;3030459;-29
2024/01/28 09:04:49;;;;;;;4.40;2.00;;;;;;;;;;43624;278;3029785;-29
2024/01/28 09:06:37;;;;;;;4.40;2.00;;;;;;;;;;43384;291;3030965;-29
2024/01/28 09:08:28;;;;;;;5.40;2.20;;;;;;;;;;43398;282;3030521;-29
2024/01/28 09:10:18;;;;;;;4.70;2.10;;;;;;;;;;43420;282;3030497;-29
2024/01/28 09:12:04;;;;;;;4.60;2.00;;;;;;;;;;43410;282;3031087;-29
2024/01/28 09:13:53;;;;;;;5.10;2.20;;;;;;;;;;43588;278;3030244;-29
2024/01/28 09:15:43;;;;;;;4.20;1.90;;;;;;;;;;43372;274;3030597;-29
2024/01/28 09:17:41;;;;;;;4.60;2.20;;;;;;;;;;43602;278;3031343;-29
2024/01/28 09:19:27;;;;;;;4.60;1.90;;;;;;;;;;43483;282;3031712;-29
2024/01/28 09:21:14;;;;;;;4.60;2.00;;;;;;;;;;43396;281;3030959;-30
2024/01/28 09:23:04;;;;;;;5.50;2.10;;;;;;;;;;43425;282;3030244;-30
2024/01/28 09:24:53;;;;;;;4.30;1.90;;;;;;;;;;43443;277;3031207;-30
2024/01/28 09:26:46;;;;;;;4.10;1.60;;;;;;;;;;43401;289;3036268;-30
2024/01/28 09:28:34;;;;;;;5.50;1.90;;;;;;;;;;43441;281;3032508;-30
2024/01/28 09:30:25;;;;;;;4.60;2.10;;;;;;;;;;43454;281;3031053;-30
2024/01/28 09:32:14;;;;;;;5.10;2.10;;;;;;;;;;43963;270;3031140;-30
2024/01/28 09:34:08;;;;;;;4.60;1.90;;;;;;;;;;43451;273;3030822;-31
2024/01/28 09:36:03;;;;;;;4.60;1.80;;;;;;;;;;44001;270;3030832;-32
2024/01/28 09:37:55;;;;;;;4.80;1.80;;;;;;;;;;43434;281;3030608;-31
2024/01/28 09:39:43;;;;;;;5.00;1.90;;;;;;;;;;43702;281;3031333;-31
2024/01/28 09:41:48;;;;;;;4.90;1.60;;;;;;;;;;43454;273;3030727;-31
2024/01/28 09:43:39;;;;;;;5.70;2.00;;;;;;;;;;43470;273;3031274;-31
2024/01/28 09:45:33;;;;;;;4.90;1.70;;;;;;;;;;43457;273;3031311;-31
2024/01/28 09:47:24;;;;;;;4.80;1.70;;;;;;;;;;43435;273;3036822;-31
2024/01/28 09:49:14;;;;;;;4.20;1.70;;;;;;;;;;43328;270;3028587;-31
2024/01/28 09:51:05;;;;;;;5.30;1.90;;;;;;;;;;43447;270;3030563;-31
2024/01/28 09:52:51;;;;;;;5.20;2.20;;;;;;;;;;43475;290;3031244;-31
2024/01/28 09:54:44;;;;;;;4.60;1.70;;;;;;;;;;43458;281;3030742;-31
2024/01/28 09:56:34;;;;;;;6.10;1.70;;;;;;;;;;43423;289;3030758;-30
2024/01/28 09:58:24;;;;;;;5.10;2.10;;;;;;;;;;43427;281;3030770;-31
2024/01/28 10:00:14;;;;;;;4.80;1.90;;;;;;;;;;43448;281;3030850;-29
2024/01/28 10:02:03;;;;;;;5.90;2.20;;;;;;;;;;43534;277;3031116;-30
2024/01/28 10:03:53;;;;;;;5.70;2.40;;;;;;;;;;43870;273;3030508;-30
2024/01/28 10:05:42;;;;;;;6.70;1.90;;;;;;;;;;43598;281;3031146;-30
2024/01/28 10:07:43;;;;;;;6.10;1.90;;;;;;;;;;43403;281;3031370;-30
2024/01/28 10:09:33;;;;;;;5.10;1.90;;;;;;;;;;43820;289;3030516;-29
2024/01/28 10:11:24;;;;;;;6.20;2.20;;;;;;;;;;43449;285;3030837;-29
2024/01/28 10:13:15;;;;;;;5.40;1.90;;;;;;;;;;43457;273;3031226;-29
2024/01/28 10:15:11;;;;;;;6.70;2.20;;;;;;;;;;43448;281;3030711;-29
2024/01/28 10:16:58;;;;;;;4.90;1.70;;;;;;;;;;44123;277;3030397;-29
2024/01/28 10:18:51;;;;;;;5.10;1.90;;;;;;;;;;43680;281;3030743;-29
2024/01/28 10:20:39;;;;;;;5.00;1.80;;;;;;;;;;43433;290;3031361;-29
2024/01/28 10:22:32;;;;;;;6.20;1.80;;;;;;;;;;43398;282;3030581;-29
2024/01/28 10:24:20;;;;;;;4.80;2.00;;;;;;;;;;43386;282;3032677;-29
2024/01/28 10:26:07;;;;;;;5.30;2.00;;;;;;;;;;44077;282;3030464;-29
2024/01/28 10:27:55;;;;;;;5.60;1.90;;;;;;;;;;43414;283;3030948;-29
2024/01/28 10:29:48;;;;;;;5.60;1.90;;;;;;;;;;43403;281;3031204;-29
2024/01/28 10:31:36;;;;;;;5.80;2.00;;;;;;;;;;43468;273;3030952;-29
2024/01/28 10:33:24;;;;;;;5.50;1.80;;;;;;;;;;43452;277;3030573;-30
2024/01/28 10:35:13;;;;;;;5.30;1.90;;;;;;;;;;43454;273;3032934;-30
2024/01/28 10:37:01;;;;;;;5.00;1.90;;;;;;;;;;43459;281;3031356;-30
2024/01/28 10:38:48;;;;;;;4.20;1.70;;;;;;;;;;44141;277;3037508;-30